sensor_id;sensor_type;location;lat;lon;timestamp;temperature;humidity
19037;DHT22;9651;49.138;8.900;2023-06-14T00:00:56;15.80;95.10
19037;DHT22;9651;49.138;8.900;2023-06-14T00:04:59;15.70;95.40
19037;DHT22;9651;49.138;8.900;2023-06-14T00:09:01;15.70;95.40
19037;DHT22;9651;49.138;8.900;2023-06-14T00:13:04;15.70;95.60
19037;DHT22;9651;49.138;8.900;2023-06-14T00:17:07;15.60;95.60
19037;DHT22;9651;49.138;8.900;2023-06-14T00:21:11;15.60;95.70
19037;DHT22;9651;49.138;8.900;2023-06-14T00:25:13;15.60;95.80
19037;DHT22;9651;49.138;8.900;2023-06-14T00:29:15;15.60;96.20
19037;DHT22;9651;49.138;8.900;2023-06-14T00:33:17;15.60;96.50
19037;DHT22;9651;49.138;8.900;2023-06-14T00:37:21;15.50;96.60
19037;DHT22;9651;49.138;8.900;2023-06-14T00:41:23;15.50;96.50
19037;DHT22;9651;49.138;8.900;2023-06-14T00:45:25;15.40;97.00
19037;DHT22;9651;49.138;8.900;2023-06-14T00:49:29;15.40;96.80
19037;DHT22;9651;49.138;8.900;2023-06-14T00:53:32;15.30;96.80
19037;DHT22;9651;49.138;8.900;2023-06-14T00:57:36;15.30;97.50
19037;DHT22;9651;49.138;8.900;2023-06-14T01:01:40;15.20;97.60
19037;DHT22;9651;49.138;8.900;2023-06-14T01:05:43;15.20;97.90
19037;DHT22;9651;49.138;8.900;2023-06-14T01:09:58;15.20;98.20
19037;DHT22;9651;49.138;8.900;2023-06-14T01:14:06;15.10;98.60
19037;DHT22;9651;49.138;8.900;2023-06-14T01:18:09;14.90;99.10
19037;DHT22;9651;49.138;8.900;2023-06-14T01:22:17;14.90;99.60
19037;DHT22;9651;49.138;8.900;2023-06-14T01:26:21;14.80;99.80
19037;DHT22;9651;49.138;8.900;2023-06-14T01:30:26;14.70;99.90
19037;DHT22;9651;49.138;8.900;2023-06-14T01:34:29;14.70;99.90
19037;DHT22;9651;49.138;8.900;2023-06-14T01:38:31;14.60;99.90
19037;DHT22;9651;49.138;8.900;2023-06-14T01:42:36;14.70;99.90
19037;DHT22;9651;49.138;8.900;2023-06-14T01:46:40;14.60;99.90
19037;DHT22;9651;49.138;8.900;2023-06-14T01:50:42;14.60;99.90
19037;DHT22;9651;49.138;8.900;2023-06-14T01:54:44;14.50;99.90
19037;DHT22;9651;49.138;8.900;2023-06-14T01:58:47;14.50;99.90
19037;DHT22;9651;49.138;8.900;2023-06-14T02:02:50;14.50;99.90
19037;DHT22;9651;49.138;8.900;2023-06-14T02:06:53;14.60;99.90
19037;DHT22;9651;49.138;8.900;2023-06-14T02:10:55;14.60;99.90
19037;DHT22;9651;49.138;8.900;2023-06-14T02:14:59;14.50;99.90
19037;DHT22;9651;49.138;8.900;2023-06-14T02:19:01;14.50;99.90
19037;DHT22;9651;49.138;8.900;2023-06-14T02:23:02;14.30;99.90
19037;DHT22;9651;49.138;8.900;2023-06-14T02:27:06;14.20;99.90
19037;DHT22;9651;49.138;8.900;2023-06-14T02:31:12;14.10;99.90
19037;DHT22;9651;49.138;8.900;2023-06-14T02:35:14;14.30;99.90
19037;DHT22;9651;49.138;8.900;2023-06-14T02:39:16;14.30;99.90
19037;DHT22;9651;49.138;8.900;2023-06-14T02:43:21;14.40;99.90
19037;DHT22;9651;49.138;8.900;2023-06-14T02:47:24;14.40;99.90
19037;DHT22;9651;49.138;8.900;2023-06-14T02:51:26;14.40;99.90
19037;DHT22;9651;49.138;8.900;2023-06-14T02:55:28;14.40;99.90
19037;DHT22;9651;49.138;8.900;2023-06-14T02:59:30;14.40;99.90
19037;DHT22;9651;49.138;8.900;2023-06-14T03:03:33;14.30;99.90
19037;DHT22;9651;49.138;8.900;2023-06-14T03:07:35;14.30;99.90
19037;DHT22;9651;49.138;8.900;2023-06-14T03:11:42;14.30;99.90
19037;DHT22;9651;49.138;8.900;2023-06-14T03:15:45;14.30;99.90
19037;DHT22;9651;49.138;8.900;2023-06-14T03:19:51;14.30;99.90
19037;DHT22;9651;49.138;8.900;2023-06-14T03:23:53;14.30;99.90
19037;DHT22;9651;49.138;8.900;2023-06-14T03:27:56;14.30;99.90
19037;DHT22;9651;49.138;8.900;2023-06-14T03:31:59;14.30;99.90
19037;DHT22;9651;49.138;8.900;2023-06-14T03:36:09;14.30;99.90
19037;DHT22;9651;49.138;8.900;2023-06-14T03:40:13;14.30;99.90
19037;DHT22;9651;49.138;8.900;2023-06-14T03:44:17;14.30;99.90
19037;DHT22;9651;49.138;8.900;2023-06-14T03:48:20;14.40;99.90
19037;DHT22;9651;49.138;8.900;2023-06-14T03:52:23;14.50;99.90
19037;DHT22;9651;49.138;8.900;2023-06-14T03:56:25;14.50;99.90
19037;DHT22;9651;49.138;8.900;2023-06-14T04:00:28;14.60;99.90
19037;DHT22;9651;49.138;8.900;2023-06-14T04:04:30;14.70;99.90
19037;DHT22;9651;49.138;8.900;2023-06-14T04:08:35;14.80;99.90
19037;DHT22;9651;49.138;8.900;2023-06-14T04:12:37;14.90;99.90
19037;DHT22;9651;49.138;8.900;2023-06-14T04:16:39;15.00;99.90
19037;DHT22;9651;49.138;8.900;2023-06-14T04:20:41;15.10;99.90
19037;DHT22;9651;49.138;8.900;2023-06-14T04:24:45;15.30;99.90
19037;DHT22;9651;49.138;8.900;2023-06-14T04:28:47;15.50;99.90
19037;DHT22;9651;49.138;8.900;2023-06-14T04:32:50;15.80;99.90
19037;DHT22;9651;49.138;8.900;2023-06-14T04:36:56;16.00;99.90
19037;DHT22;9651;49.138;8.900;2023-06-14T04:41:11;16.30;99.90
19037;DHT22;9651;49.138;8.900;2023-06-14T04:45:14;16.40;99.90
19037;DHT22;9651;49.138;8.900;2023-06-14T04:49:16;16.50;99.90
19037;DHT22;9651;49.138;8.900;2023-06-14T04:53:19;16.80;99.90
19037;DHT22;9651;49.138;8.900;2023-06-14T04:57:26;16.90;99.90
19037;DHT22;9651;49.138;8.900;2023-06-14T05:01:32;17.30;99.90
19037;DHT22;9651;49.138;8.900;2023-06-14T05:05:34;17.50;99.90
19037;DHT22;9651;49.138;8.900;2023-06-14T05:09:37;17.80;99.90
19037;DHT22;9651;49.138;8.900;2023-06-14T05:13:41;18.20;99.90
19037;DHT22;9651;49.138;8.900;2023-06-14T05:17:46;18.70;99.90
19037;DHT22;9651;49.138;8.900;2023-06-14T05:21:53;19.30;99.20
19037;DHT22;9651;49.138;8.900;2023-06-14T05:25:55;19.40;98.00
19037;DHT22;9651;49.138;8.900;2023-06-14T05:29:59;19.60;97.60
19037;DHT22;9651;49.138;8.900;2023-06-14T05:34:01;19.60;97.00
19037;DHT22;9651;49.138;8.900;2023-06-14T05:38:03;19.80;96.60
19037;DHT22;9651;49.138;8.900;2023-06-14T05:42:06;19.90;96.30
19037;DHT22;9651;49.138;8.900;2023-06-14T05:46:09;20.50;95.90
19037;DHT22;9651;49.138;8.900;2023-06-14T05:50:11;20.70;94.80
19037;DHT22;9651;49.138;8.900;2023-06-14T05:54:13;20.50;94.70
19037;DHT22;9651;49.138;8.900;2023-06-14T05:58:15;20.70;94.80
19037;DHT22;9651;49.138;8.900;2023-06-14T06:02:18;21.00;94.00
19037;DHT22;9651;49.138;8.900;2023-06-14T06:06:20;21.10;93.40
19037;DHT22;9651;49.138;8.900;2023-06-14T06:10:22;21.10;92.90
19037;DHT22;9651;49.138;8.900;2023-06-14T06:14:24;20.50;93.00
19037;DHT22;9651;49.138;8.900;2023-06-14T06:18:27;20.50;93.40
19037;DHT22;9651;49.138;8.900;2023-06-14T06:22:29;20.20;93.70
19037;DHT22;9651;49.138;8.900;2023-06-14T06:26:31;20.50;93.70
19037;DHT22;9651;49.138;8.900;2023-06-14T06:30:32;20.80;93.00
19037;DHT22;9651;49.138;8.900;2023-06-14T06:34:36;21.30;92.50
19037;DHT22;9651;49.138;8.900;2023-06-14T06:38:38;21.80;91.80
19037;DHT22;9651;49.138;8.900;2023-06-14T06:42:40;21.80;91.50
19037;DHT22;9651;49.138;8.900;2023-06-14T06:46:46;22.00;91.20
19037;DHT22;9651;49.138;8.900;2023-06-14T06:50:49;22.40;90.30
19037;DHT22;9651;49.138;8.900;2023-06-14T06:54:51;22.30;89.50
19037;DHT22;9651;49.138;8.900;2023-06-14T06:58:55;22.10;90.30
19037;DHT22;9651;49.138;8.900;2023-06-14T07:02:57;22.20;89.80
19037;DHT22;9651;49.138;8.900;2023-06-14T07:07:01;22.40;89.60
19037;DHT22;9651;49.138;8.900;2023-06-14T07:11:03;23.00;88.70
19037;DHT22;9651;49.138;8.900;2023-06-14T07:15:06;22.60;88.20
19037;DHT22;9651;49.138;8.900;2023-06-14T07:19:09;22.30;89.20
19037;DHT22;9651;49.138;8.900;2023-06-14T07:23:12;22.70;88.70
19037;DHT22;9651;49.138;8.900;2023-06-14T07:27:14;23.10;87.40
19037;DHT22;9651;49.138;8.900;2023-06-14T07:31:16;23.20;87.40
19037;DHT22;9651;49.138;8.900;2023-06-14T07:35:19;23.70;85.80
19037;DHT22;9651;49.138;8.900;2023-06-14T07:39:23;24.00;84.60
19037;DHT22;9651;49.138;8.900;2023-06-14T07:43:24;23.80;84.80
19037;DHT22;9651;49.138;8.900;2023-06-14T07:47:26;24.40;84.20
19037;DHT22;9651;49.138;8.900;2023-06-14T07:51:28;24.90;82.50
19037;DHT22;9651;49.138;8.900;2023-06-14T07:55:31;24.90;80.60
19037;DHT22;9651;49.138;8.900;2023-06-14T07:59:37;25.10;80.60
19037;DHT22;9651;49.138;8.900;2023-06-14T08:03:39;25.20;80.10
19037;DHT22;9651;49.138;8.900;2023-06-14T08:07:41;25.40;79.70
19037;DHT22;9651;49.138;8.900;2023-06-14T08:11:44;25.90;78.50
19037;DHT22;9651;49.138;8.900;2023-06-14T08:15:46;26.40;78.00
19037;DHT22;9651;49.138;8.900;2023-06-14T08:19:48;26.50;76.40
19037;DHT22;9651;49.138;8.900;2023-06-14T08:23:50;27.00;75.20
19037;DHT22;9651;49.138;8.900;2023-06-14T08:27:54;26.10;75.00
19037;DHT22;9651;49.138;8.900;2023-06-14T08:31:56;26.00;75.70
19037;DHT22;9651;49.138;8.900;2023-06-14T08:35:58;26.20;75.40
19037;DHT22;9651;49.138;8.900;2023-06-14T08:40:00;27.00;74.20
19037;DHT22;9651;49.138;8.900;2023-06-14T08:44:07;27.60;72.80
19037;DHT22;9651;49.138;8.900;2023-06-14T08:48:09;28.00;71.30
19037;DHT22;9651;49.138;8.900;2023-06-14T08:52:12;28.40;69.00
19037;DHT22;9651;49.138;8.900;2023-06-14T08:56:15;28.80;68.20
19037;DHT22;9651;49.138;8.900;2023-06-14T09:00:19;29.30;66.00
19037;DHT22;9651;49.138;8.900;2023-06-14T09:04:21;28.90;66.40
19037;DHT22;9651;49.138;8.900;2023-06-14T09:08:25;29.30;66.30
19037;DHT22;9651;49.138;8.900;2023-06-14T09:12:28;29.70;64.00
19037;DHT22;9651;49.138;8.900;2023-06-14T09:16:34;30.30;61.70
19037;DHT22;9651;49.138;8.900;2023-06-14T09:20:36;30.20;61.60
19037;DHT22;9651;49.138;8.900;2023-06-14T09:24:38;30.80;61.20
19037;DHT22;9651;49.138;8.900;2023-06-14T09:28:44;31.50;60.00
19037;DHT22;9651;49.138;8.900;2023-06-14T09:32:48;31.80;58.20
19037;DHT22;9651;49.138;8.900;2023-06-14T09:36:51;32.00;58.00
19037;DHT22;9651;49.138;8.900;2023-06-14T09:40:55;32.90;57.50
19037;DHT22;9651;49.138;8.900;2023-06-14T09:44:57;32.70;55.90
19037;DHT22;9651;49.138;8.900;2023-06-14T09:49:02;33.40;55.40
19037;DHT22;9651;49.138;8.900;2023-06-14T09:53:07;32.80;55.90
19037;DHT22;9651;49.138;8.900;2023-06-14T09:57:10;33.60;54.90
19037;DHT22;9651;49.138;8.900;2023-06-14T10:01:13;34.00;53.00
19037;DHT22;9651;49.138;8.900;2023-06-14T10:05:17;33.60;53.10
19037;DHT22;9651;49.138;8.900;2023-06-14T10:09:21;34.30;53.10
19037;DHT22;9651;49.138;8.900;2023-06-14T10:13:25;34.80;52.10
19037;DHT22;9651;49.138;8.900;2023-06-14T10:17:33;35.30;50.30
19037;DHT22;9651;49.138;8.900;2023-06-14T10:21:51;35.20;49.50
19037;DHT22;9651;49.138;8.900;2023-06-14T10:25:57;36.20;48.60
19037;DHT22;9651;49.138;8.900;2023-06-14T10:30:06;37.10;47.60
19037;DHT22;9651;49.138;8.900;2023-06-14T10:34:09;37.10;46.70
19037;DHT22;9651;49.138;8.900;2023-06-14T10:38:12;37.70;46.90
19037;DHT22;9651;49.138;8.900;2023-06-14T10:42:14;38.10;46.10
19037;DHT22;9651;49.138;8.900;2023-06-14T10:46:17;36.60;45.40
19037;DHT22;9651;49.138;8.900;2023-06-14T10:50:28;37.20;45.90
19037;DHT22;9651;49.138;8.900;2023-06-14T10:54:31;36.10;46.80
19037;DHT22;9651;49.138;8.900;2023-06-14T10:58:33;36.60;46.30
19037;DHT22;9651;49.138;8.900;2023-06-14T11:07:18;36.70;45.70
19037;DHT22;9651;49.138;8.900;2023-06-14T11:11:32;35.70;45.60
19037;DHT22;9651;49.138;8.900;2023-06-14T11:15:36;34.10;47.10
19037;DHT22;9651;49.138;8.900;2023-06-14T11:19:38;33.40;48.00
19037;DHT22;9651;49.138;8.900;2023-06-14T11:23:40;34.30;47.50
19037;DHT22;9651;49.138;8.900;2023-06-14T11:27:44;36.40;45.50
19037;DHT22;9651;49.138;8.900;2023-06-14T11:31:46;35.70;44.50
19037;DHT22;9651;49.138;8.900;2023-06-14T11:35:48;36.10;44.90
19037;DHT22;9651;49.138;8.900;2023-06-14T11:39:50;36.90;44.90
19037;DHT22;9651;49.138;8.900;2023-06-14T11:43:54;38.50;44.90
19037;DHT22;9651;49.138;8.900;2023-06-14T11:47:56;39.70;43.60
19037;DHT22;9651;49.138;8.900;2023-06-14T11:51:58;39.10;42.60
19037;DHT22;9651;49.138;8.900;2023-06-14T11:56:01;36.20;44.20
19037;DHT22;9651;49.138;8.900;2023-06-14T12:00:07;36.90;44.20
19037;DHT22;9651;49.138;8.900;2023-06-14T12:04:12;39.00;43.50
19037;DHT22;9651;49.138;8.900;2023-06-14T12:08:14;40.20;42.40
19037;DHT22;9651;49.138;8.900;2023-06-14T12:12:20;41.00;41.20
19037;DHT22;9651;49.138;8.900;2023-06-14T12:16:30;40.40;40.30
19037;DHT22;9651;49.138;8.900;2023-06-14T12:20:32;37.20;40.90
19037;DHT22;9651;49.138;8.900;2023-06-14T12:24:35;35.10;43.20
19037;DHT22;9651;49.138;8.900;2023-06-14T12:28:37;35.00;43.80
19037;DHT22;9651;49.138;8.900;2023-06-14T12:32:42;37.20;42.60
19037;DHT22;9651;49.138;8.900;2023-06-14T12:36:46;38.40;41.90
19037;DHT22;9651;49.138;8.900;2023-06-14T12:40:47;36.30;42.60
19037;DHT22;9651;49.138;8.900;2023-06-14T12:44:49;35.20;43.40
19037;DHT22;9651;49.138;8.900;2023-06-14T12:48:53;37.60;42.50
19037;DHT22;9651;49.138;8.900;2023-06-14T12:52:54;37.50;42.60
19037;DHT22;9651;49.138;8.900;2023-06-14T12:56:56;36.40;42.80
19037;DHT22;9651;49.138;8.900;2023-06-14T13:00:58;37.60;42.10
19037;DHT22;9651;49.138;8.900;2023-06-14T13:05:02;39.60;41.40
19037;DHT22;9651;49.138;8.900;2023-06-14T13:09:05;40.30;40.80
19037;DHT22;9651;49.138;8.900;2023-06-14T13:13:07;41.50;40.80
19037;DHT22;9651;49.138;8.900;2023-06-14T13:17:09;41.00;40.30
19037;DHT22;9651;49.138;8.900;2023-06-14T13:21:12;38.20;41.40
19037;DHT22;9651;49.138;8.900;2023-06-14T13:25:14;34.20;43.40
19037;DHT22;9651;49.138;8.900;2023-06-14T13:29:16;33.00;44.20
19037;DHT22;9651;49.138;8.900;2023-06-14T13:33:18;32.20;45.10
19037;DHT22;9651;49.138;8.900;2023-06-14T13:37:21;31.80;45.80
19037;DHT22;9651;49.138;8.900;2023-06-14T13:41:23;33.50;46.00
19037;DHT22;9651;49.138;8.900;2023-06-14T13:45:27;37.40;43.30
19037;DHT22;9651;49.138;8.900;2023-06-14T13:49:29;39.50;42.60
19037;DHT22;9651;49.138;8.900;2023-06-14T13:53:32;38.20;41.70
19037;DHT22;9651;49.138;8.900;2023-06-14T13:57:34;36.70;41.40
19037;DHT22;9651;49.138;8.900;2023-06-14T14:01:36;34.60;43.10
19037;DHT22;9651;49.138;8.900;2023-06-14T14:05:38;34.20;44.60
19037;DHT22;9651;49.138;8.900;2023-06-14T14:09:41;35.20;43.50
19037;DHT22;9651;49.138;8.900;2023-06-14T14:13:43;35.20;43.90
19037;DHT22;9651;49.138;8.900;2023-06-14T14:17:45;36.80;43.70
19037;DHT22;9651;49.138;8.900;2023-06-14T14:21:47;38.60;42.20
19037;DHT22;9651;49.138;8.900;2023-06-14T14:25:50;39.00;42.00
19037;DHT22;9651;49.138;8.900;2023-06-14T14:29:52;38.00;41.70
19037;DHT22;9651;49.138;8.900;2023-06-14T14:33:54;35.90;42.90
19037;DHT22;9651;49.138;8.900;2023-06-14T14:37:56;35.30;43.60
19037;DHT22;9651;49.138;8.900;2023-06-14T14:41:59;37.40;42.60
19037;DHT22;9651;49.138;8.900;2023-06-14T14:46:01;39.20;41.20
19037;DHT22;9651;49.138;8.900;2023-06-14T14:50:03;40.00;40.70
19037;DHT22;9651;49.138;8.900;2023-06-14T14:54:09;40.90;40.70
19037;DHT22;9651;49.138;8.900;2023-06-14T14:58:12;40.50;40.90
19037;DHT22;9651;49.138;8.900;2023-06-14T15:02:17;40.90;41.00
19037;DHT22;9651;49.138;8.900;2023-06-14T15:06:19;40.90;40.20
19037;DHT22;9651;49.138;8.900;2023-06-14T15:10:21;40.40;40.80
19037;DHT22;9651;49.138;8.900;2023-06-14T15:14:24;40.00;41.00
19037;DHT22;9651;49.138;8.900;2023-06-14T15:18:26;40.10;41.00
19037;DHT22;9651;49.138;8.900;2023-06-14T15:22:28;40.60;41.00
19037;DHT22;9651;49.138;8.900;2023-06-14T15:26:30;40.50;40.80
19037;DHT22;9651;49.138;8.900;2023-06-14T15:30:33;41.00;40.20
19037;DHT22;9651;49.138;8.900;2023-06-14T15:34:35;40.90;40.00
19037;DHT22;9651;49.138;8.900;2023-06-14T15:38:38;40.60;40.20
19037;DHT22;9651;49.138;8.900;2023-06-14T15:42:40;40.90;40.30
19037;DHT22;9651;49.138;8.900;2023-06-14T15:46:43;39.40;41.20
19037;DHT22;9651;49.138;8.900;2023-06-14T15:50:46;39.10;41.90
19037;DHT22;9651;49.138;8.900;2023-06-14T15:54:48;38.60;42.30
19037;DHT22;9651;49.138;8.900;2023-06-14T15:58:50;38.20;42.60
19037;DHT22;9651;49.138;8.900;2023-06-14T16:02:53;37.50;42.50
19037;DHT22;9651;49.138;8.900;2023-06-14T16:06:55;37.30;42.90
19037;DHT22;9651;49.138;8.900;2023-06-14T16:10:57;37.30;43.20
19037;DHT22;9651;49.138;8.900;2023-06-14T16:14:58;37.00;43.20
19037;DHT22;9651;49.138;8.900;2023-06-14T16:19:02;36.60;43.50
19037;DHT22;9651;49.138;8.900;2023-06-14T16:23:05;36.40;44.00
19037;DHT22;9651;49.138;8.900;2023-06-14T16:27:07;36.10;43.10
19037;DHT22;9651;49.138;8.900;2023-06-14T16:31:09;35.50;43.30
19037;DHT22;9651;49.138;8.900;2023-06-14T16:35:13;35.30;43.50
19037;DHT22;9651;49.138;8.900;2023-06-14T16:39:15;34.80;43.60
19037;DHT22;9651;49.138;8.900;2023-06-14T16:43:17;34.30;44.20
19037;DHT22;9651;49.138;8.900;2023-06-14T16:47:18;33.10;44.60
19037;DHT22;9651;49.138;8.900;2023-06-14T16:51:22;31.90;45.60
19037;DHT22;9651;49.138;8.900;2023-06-14T16:55:24;30.90;46.30
19037;DHT22;9651;49.138;8.900;2023-06-14T16:59:25;30.10;46.70
19037;DHT22;9651;49.138;8.900;2023-06-14T17:03:27;29.40;46.80
19037;DHT22;9651;49.138;8.900;2023-06-14T17:07:30;29.10;47.40
19037;DHT22;9651;49.138;8.900;2023-06-14T17:11:32;28.50;48.10
19037;DHT22;9651;49.138;8.900;2023-06-14T17:15:34;27.90;48.60
19037;DHT22;9651;49.138;8.900;2023-06-14T17:19:36;27.50;49.50
19037;DHT22;9651;49.138;8.900;2023-06-14T17:23:39;27.40;49.70
19037;DHT22;9651;49.138;8.900;2023-06-14T17:27:41;27.20;50.00
19037;DHT22;9651;49.138;8.900;2023-06-14T17:31:44;26.90;50.50
19037;DHT22;9651;49.138;8.900;2023-06-14T17:35:46;26.70;50.80
19037;DHT22;9651;49.138;8.900;2023-06-14T17:39:49;26.70;51.60
19037;DHT22;9651;49.138;8.900;2023-06-14T17:43:51;26.60;51.90
19037;DHT22;9651;49.138;8.900;2023-06-14T17:47:53;26.40;52.20
19037;DHT22;9651;49.138;8.900;2023-06-14T17:51:55;26.30;52.30
19037;DHT22;9651;49.138;8.900;2023-06-14T17:56:01;26.20;52.50
19037;DHT22;9651;49.138;8.900;2023-06-14T18:00:04;26.10;53.10
19037;DHT22;9651;49.138;8.900;2023-06-14T18:04:12;25.90;53.20
19037;DHT22;9651;49.138;8.900;2023-06-14T18:08:14;25.80;53.30
19037;DHT22;9651;49.138;8.900;2023-06-14T18:12:17;25.70;53.30
19037;DHT22;9651;49.138;8.900;2023-06-14T18:16:19;25.70;53.60
19037;DHT22;9651;49.138;8.900;2023-06-14T18:20:22;25.60;54.40
19037;DHT22;9651;49.138;8.900;2023-06-14T18:24:24;25.50;54.50
19037;DHT22;9651;49.138;8.900;2023-06-14T18:28:27;25.40;54.80
19037;DHT22;9651;49.138;8.900;2023-06-14T18:32:29;25.30;54.60
19037;DHT22;9651;49.138;8.900;2023-06-14T18:36:34;25.20;54.70
19037;DHT22;9651;49.138;8.900;2023-06-14T18:40:38;25.10;55.00
19037;DHT22;9651;49.138;8.900;2023-06-14T18:44:41;25.00;55.00
19037;DHT22;9651;49.138;8.900;2023-06-14T18:48:43;24.90;55.20
19037;DHT22;9651;49.138;8.900;2023-06-14T18:52:45;24.80;55.90
19037;DHT22;9651;49.138;8.900;2023-06-14T18:56:47;24.70;56.50
19037;DHT22;9651;49.138;8.900;2023-06-14T19:00:50;24.60;57.50
19037;DHT22;9651;49.138;8.900;2023-06-14T19:04:52;24.50;57.80
19037;DHT22;9651;49.138;8.900;2023-06-14T19:08:54;24.40;58.40
19037;DHT22;9651;49.138;8.900;2023-06-14T19:12:56;24.20;58.60
19037;DHT22;9651;49.138;8.900;2023-06-14T19:17:00;24.10;58.90
19037;DHT22;9651;49.138;8.900;2023-06-14T19:21:02;23.90;59.10
19037;DHT22;9651;49.138;8.900;2023-06-14T19:25:04;23.80;59.20
19037;DHT22;9651;49.138;8.900;2023-06-14T19:29:06;23.70;59.50
19037;DHT22;9651;49.138;8.900;2023-06-14T19:33:09;23.60;60.60
19037;DHT22;9651;49.138;8.900;2023-06-14T19:37:13;23.50;60.10
19037;DHT22;9651;49.138;8.900;2023-06-14T19:41:17;23.40;60.00
19037;DHT22;9651;49.138;8.900;2023-06-14T19:45:20;23.20;60.60
19037;DHT22;9651;49.138;8.900;2023-06-14T19:49:23;23.00;61.10
19037;DHT22;9651;49.138;8.900;2023-06-14T19:53:25;22.80;61.10
19037;DHT22;9651;49.138;8.900;2023-06-14T19:57:27;22.70;62.10
19037;DHT22;9651;49.138;8.900;2023-06-14T20:01:29;22.60;63.50
19037;DHT22;9651;49.138;8.900;2023-06-14T20:05:32;22.50;63.30
19037;DHT22;9651;49.138;8.900;2023-06-14T20:09:35;22.50;63.00
19037;DHT22;9651;49.138;8.900;2023-06-14T20:13:37;22.40;63.40
19037;DHT22;9651;49.138;8.900;2023-06-14T20:17:39;22.30;63.80
19037;DHT22;9651;49.138;8.900;2023-06-14T20:21:42;22.30;64.60
19037;DHT22;9651;49.138;8.900;2023-06-14T20:25:44;22.20;65.40
19037;DHT22;9651;49.138;8.900;2023-06-14T20:29:46;22.10;65.30
19037;DHT22;9651;49.138;8.900;2023-06-14T20:33:48;21.90;65.80
19037;DHT22;9651;49.138;8.900;2023-06-14T20:37:51;21.90;66.50
19037;DHT22;9651;49.138;8.900;2023-06-14T20:41:53;21.80;67.20
19037;DHT22;9651;49.138;8.900;2023-06-14T20:45:57;21.60;67.30
19037;DHT22;9651;49.138;8.900;2023-06-14T20:49:59;21.50;68.00
19037;DHT22;9651;49.138;8.900;2023-06-14T20:54:02;21.30;68.40
19037;DHT22;9651;49.138;8.900;2023-06-14T20:58:04;21.30;68.50
19037;DHT22;9651;49.138;8.900;2023-06-14T21:02:06;21.30;68.90
19037;DHT22;9651;49.138;8.900;2023-06-14T21:06:11;21.30;69.20
19037;DHT22;9651;49.138;8.900;2023-06-14T21:10:16;21.20;70.70
19037;DHT22;9651;49.138;8.900;2023-06-14T21:14:18;21.10;72.40
19037;DHT22;9651;49.138;8.900;2023-06-14T21:18:20;21.00;73.30
19037;DHT22;9651;49.138;8.900;2023-06-14T21:22:22;20.90;73.90
19037;DHT22;9651;49.138;8.900;2023-06-14T21:26:25;20.90;74.30
19037;DHT22;9651;49.138;8.900;2023-06-14T21:30:31;20.80;75.30
19037;DHT22;9651;49.138;8.900;2023-06-14T21:34:34;20.60;75.10
19037;DHT22;9651;49.138;8.900;2023-06-14T21:38:37;20.20;74.90
19037;DHT22;9651;49.138;8.900;2023-06-14T21:42:41;20.10;76.60
19037;DHT22;9651;49.138;8.900;2023-06-14T21:46:43;20.00;77.10
19037;DHT22;9651;49.138;8.900;2023-06-14T21:50:44;20.00;76.50
19037;DHT22;9651;49.138;8.900;2023-06-14T21:54:53;20.00;75.90
19037;DHT22;9651;49.138;8.900;2023-06-14T21:58:57;20.10;76.90
19037;DHT22;9651;49.138;8.900;2023-06-14T22:02:59;19.90;77.00
19037;DHT22;9651;49.138;8.900;2023-06-14T22:07:01;19.80;78.70
19037;DHT22;9651;49.138;8.900;2023-06-14T22:11:03;19.60;79.50
19037;DHT22;9651;49.138;8.900;2023-06-14T22:15:10;19.60;79.60
19037;DHT22;9651;49.138;8.900;2023-06-14T22:19:13;19.40;79.70
19037;DHT22;9651;49.138;8.900;2023-06-14T22:23:15;19.30;80.00
19037;DHT22;9651;49.138;8.900;2023-06-14T22:27:17;19.20;80.40
19037;DHT22;9651;49.138;8.900;2023-06-14T22:31:22;19.10;80.70
19037;DHT22;9651;49.138;8.900;2023-06-14T22:35:24;18.90;80.90
19037;DHT22;9651;49.138;8.900;2023-06-14T22:39:26;18.90;82.40
19037;DHT22;9651;49.138;8.900;2023-06-14T22:43:27;18.80;82.80
19037;DHT22;9651;49.138;8.900;2023-06-14T22:47:31;18.80;83.20
19037;DHT22;9651;49.138;8.900;2023-06-14T22:51:32;18.80;83.80
19037;DHT22;9651;49.138;8.900;2023-06-14T22:55:34;18.70;83.80
19037;DHT22;9651;49.138;8.900;2023-06-14T22:59:36;18.70;83.70
19037;DHT22;9651;49.138;8.900;2023-06-14T23:03:40;18.70;83.90
19037;DHT22;9651;49.138;8.900;2023-06-14T23:07:42;18.60;84.50
19037;DHT22;9651;49.138;8.900;2023-06-14T23:11:44;18.50;84.60
19037;DHT22;9651;49.138;8.900;2023-06-14T23:15:47;18.40;85.70
19037;DHT22;9651;49.138;8.900;2023-06-14T23:19:50;18.40;86.30
19037;DHT22;9651;49.138;8.900;2023-06-14T23:23:52;18.40;86.70
19037;DHT22;9651;49.138;8.900;2023-06-14T23:27:54;18.30;86.60
19037;DHT22;9651;49.138;8.900;2023-06-14T23:31:57;18.30;86.70
19037;DHT22;9651;49.138;8.900;2023-06-14T23:36:01;18.20;87.40
19037;DHT22;9651;49.138;8.900;2023-06-14T23:40:05;18.20;87.30
19037;DHT22;9651;49.138;8.900;2023-06-14T23:44:11;18.10;87.80
19037;DHT22;9651;49.138;8.900;2023-06-14T23:48:14;18.00;88.10
19037;DHT22;9651;49.138;8.900;2023-06-14T23:52:17;18.10;88.60
19037;DHT22;9651;49.138;8.900;2023-06-14T23:56:21;18.10;88.60
